Time;durP1;ratioP1;P1;durP2;ratioP2;P2;SDS_P1;SDS_P2;PMS_P1;PMS_P2;Temp;Humidity;BMP_temperature;BMP_pressure;BME280_temperature;BME280_humidity;BME280_pressure;Samples;Min_cycle;Max_cycle;Signal;HPM_P1;HPM_P2
2022/09/06 00:01:46;;;;;;;16.92;11.75;;;;;;;;;;5075887;28;20116;-58
2022/09/06 00:04:12;;;;;;;16.50;11.50;;;;;;;;;;5075765;28;20033;-61
2022/09/06 00:06:38;;;;;;;19.08;11.38;;;;;;;;;;5075689;28;20070;-60
2022/09/06 00:09:04;;;;;;;16.90;11.20;;;;;;;;;;5075548;28;20021;-61
2022/09/06 00:11:30;;;;;;;18.30;12.20;;;;;;;;;;5075326;28;20025;-61
2022/09/06 00:13:56;;;;;;;17.38;12.18;;;;;;;;;;5074206;28;20048;-59
2022/09/06 00:16:23;;;;;;;17.05;11.10;;;;;;;;;;5074352;28;20377;-58
2022/09/06 00:18:52;;;;;;;19.77;11.45;;;;;;;;;;5075261;28;20036;-60
2022/09/06 00:21:20;;;;;;;17.88;11.43;;;;;;;;;;5075540;28;20499;-60
2022/09/06 00:23:46;;;;;;;17.67;11.13;;;;;;;;;;5075714;28;20077;-62
2022/09/06 00:26:13;;;;;;;16.63;11.48;;;;;;;;;;5075407;28;20041;-59
2022/09/06 00:28:39;;;;;;;16.33;11.18;;;;;;;;;;5075159;28;20487;-61
2022/09/06 00:31:12;;;;;;;17.60;12.40;;;;;;;;;;5075018;28;20063;-60
2022/09/06 00:33:39;;;;;;;16.40;11.35;;;;;;;;;;5075321;28;20040;-59
2022/09/06 00:36:05;;;;;;;18.23;12.13;;;;;;;;;;5075299;28;20078;-58
2022/09/06 00:38:31;;;;;;;16.55;11.55;;;;;;;;;;5074991;28;20442;-58
2022/09/06 00:40:57;;;;;;;16.65;11.30;;;;;;;;;;5075005;28;20021;-60
2022/09/06 00:43:23;;;;;;;16.65;12.27;;;;;;;;;;5074835;28;20031;-60
2022/09/06 00:45:49;;;;;;;17.08;11.55;;;;;;;;;;5074318;28;20024;-58
2022/09/06 00:48:16;;;;;;;16.65;12.30;;;;;;;;;;5074792;28;20016;-59
2022/09/06 00:50:42;;;;;;;16.60;11.55;;;;;;;;;;5075008;28;20385;-59
2022/09/06 00:53:08;;;;;;;17.08;11.75;;;;;;;;;;5074591;28;20507;-59
2022/09/06 00:55:35;;;;;;;19.15;11.70;;;;;;;;;;5074638;28;20017;-59
2022/09/06 00:58:01;;;;;;;17.50;11.63;;;;;;;;;;5074539;28;20081;-59
2022/09/06 01:00:27;;;;;;;16.65;11.23;;;;;;;;;;5074555;28;20488;-60
2022/09/06 01:02:53;;;;;;;17.17;11.50;;;;;;;;;;5074652;28;20031;-57
2022/09/06 01:05:20;;;;;;;18.27;11.73;;;;;;;;;;5074788;28;20082;-59
2022/09/06 01:07:46;;;;;;;21.17;11.57;;;;;;;;;;5073086;28;20029;-61
2022/09/06 01:10:12;;;;;;;16.52;10.85;;;;;;;;;;5074068;28;20810;-61
2022/09/06 01:12:47;;;;;;;16.35;11.30;;;;;;;;;;5074132;28;20033;-59
2022/09/06 01:15:32;;;;;;;16.98;11.70;;;;;;;;;;5074607;28;20043;-59
2022/09/06 01:17:58;;;;;;;17.25;11.68;;;;;;;;;;5074252;28;20029;-61
2022/09/06 01:20:27;;;;;;;18.52;11.50;;;;;;;;;;5073275;28;20078;-61
2022/09/06 01:23:06;;;;;;;19.65;11.93;;;;;;;;;;5074529;28;20369;-61
2022/09/06 01:25:55;;;;;;;17.27;12.13;;;;;;;;;;5074149;28;20029;-57
2022/09/06 01:28:39;;;;;;;15.68;11.52;;;;;;;;;;5065949;28;20499;-61
2022/09/06 01:31:16;;;;;;;15.70;11.38;;;;;;;;;;5074156;28;20024;-58
2022/09/06 01:33:42;;;;;;;16.52;11.63;;;;;;;;;;5073228;28;20025;-61
2022/09/06 01:36:10;;;;;;;16.40;12.45;;;;;;;;;;5072949;28;20028;-61
2022/09/06 01:38:36;;;;;;;17.77;11.65;;;;;;;;;;5073693;28;20512;-60
2022/09/06 01:41:02;;;;;;;15.98;11.60;;;;;;;;;;5073980;28;20103;-60
2022/09/06 01:43:32;;;;;;;18.08;12.20;;;;;;;;;;5074109;28;20025;-59
2022/09/06 01:46:16;;;;;;;16.30;11.73;;;;;;;;;;5073809;28;20021;-61
2022/09/06 01:49:01;;;;;;;17.92;12.35;;;;;;;;;;5073636;28;20033;-59
2022/09/06 01:51:30;;;;;;;16.38;12.00;;;;;;;;;;5073581;28;20075;-60
2022/09/06 01:54:05;;;;;;;17.45;12.38;;;;;;;;;;5073763;28;20059;-61
2022/09/06 01:56:31;;;;;;;16.50;12.48;;;;;;;;;;5073711;28;20025;-62
2022/09/06 01:58:57;;;;;;;18.40;12.18;;;;;;;;;;5073622;28;20078;-59
2022/09/06 02:01:23;;;;;;;18.25;11.68;;;;;;;;;;5073595;28;20037;-60
2022/09/06 02:03:58;;;;;;;15.32;11.85;;;;;;;;;;5073536;28;20111;-61
2022/09/06 02:06:27;;;;;;;17.63;12.45;;;;;;;;;;5073526;28;20404;-58
2022/09/06 02:08:56;;;;;;;18.38;12.10;;;;;;;;;;5073146;28;20445;-60
2022/09/06 02:11:24;;;;;;;17.30;12.18;;;;;;;;;;5073282;28;20494;-61
2022/09/06 02:14:00;;;;;;;17.63;12.15;;;;;;;;;;5073384;28;20036;-59
2022/09/06 02:16:27;;;;;;;17.27;12.13;;;;;;;;;;5073294;28;20028;-61
2022/09/06 02:19:11;;;;;;;16.20;12.05;;;;;;;;;;5071679;28;20056;-60
2022/09/06 02:21:39;;;;;;;17.05;12.00;;;;;;;;;;5072606;28;20103;-59
2022/09/06 02:24:08;;;;;;;16.10;11.90;;;;;;;;;;5073225;28;20035;-59
2022/09/06 02:26:36;;;;;;;17.10;12.32;;;;;;;;;;5073171;28;20033;-59
2022/09/06 02:29:03;;;;;;;16.27;12.13;;;;;;;;;;5071610;28;20055;-61
2022/09/06 02:31:34;;;;;;;18.02;12.10;;;;;;;;;;5072723;28;20028;-61
2022/09/06 02:34:00;;;;;;;17.25;12.23;;;;;;;;;;5071627;28;20397;-61
2022/09/06 02:36:26;;;;;;;17.42;12.23;;;;;;;;;;5072805;28;20047;-58
2022/09/06 02:38:53;;;;;;;16.48;11.88;;;;;;;;;;5072738;28;20032;-61
2022/09/06 02:41:21;;;;;;;17.33;12.55;;;;;;;;;;5072768;28;20489;-60
2022/09/06 02:43:48;;;;;;;19.48;12.50;;;;;;;;;;5072821;28;20039;-60
2022/09/06 02:46:14;;;;;;;17.63;11.57;;;;;;;;;;5072840;28;20036;-60
2022/09/06 02:48:40;;;;;;;16.52;12.15;;;;;;;;;;5071016;28;20024;-59
2022/09/06 02:51:06;;;;;;;16.77;12.30;;;;;;;;;;5071042;28;20031;-61
2022/09/06 02:53:33;;;;;;;18.40;12.20;;;;;;;;;;5072764;28;20556;-57
2022/09/06 02:55:59;;;;;;;16.38;11.80;;;;;;;;;;5072544;28;20608;-61
2022/09/06 02:58:25;;;;;;;17.05;12.30;;;;;;;;;;5072256;28;20025;-57
2022/09/06 03:00:52;;;;;;;17.25;12.20;;;;;;;;;;5071235;28;20108;-61
2022/09/06 03:03:21;;;;;;;16.85;11.98;;;;;;;;;;5072599;28;20052;-61
2022/09/06 03:05:48;;;;;;;18.45;12.10;;;;;;;;;;5072192;28;20115;-61
2022/09/06 03:08:14;;;;;;;19.00;12.07;;;;;;;;;;5071013;28;20028;-60
2022/09/06 03:10:40;;;;;;;15.77;12.02;;;;;;;;;;5072335;28;20029;-61
2022/09/06 03:13:06;;;;;;;15.95;11.77;;;;;;;;;;5071014;28;20024;-61
2022/09/06 03:15:32;;;;;;;17.27;11.85;;;;;;;;;;5072156;28;20035;-55
2022/09/06 03:17:59;;;;;;;17.20;12.57;;;;;;;;;;5071869;28;20401;-57
2022/09/06 03:20:25;;;;;;;15.98;11.80;;;;;;;;;;5072296;28;20169;-60
2022/09/06 03:22:51;;;;;;;16.38;12.18;;;;;;;;;;5072171;28;20035;-58
2022/09/06 03:25:17;;;;;;;17.13;11.80;;;;;;;;;;5072493;28;20033;-56
2022/09/06 03:27:43;;;;;;;18.30;12.15;;;;;;;;;;5070676;28;20040;-55
2022/09/06 03:30:10;;;;;;;17.20;12.15;;;;;;;;;;5072199;28;20361;-61
2022/09/06 03:32:36;;;;;;;16.63;12.18;;;;;;;;;;5070476;28;20032;-58
2022/09/06 03:35:02;;;;;;;18.83;11.93;;;;;;;;;;5071949;28;20029;-57
2022/09/06 03:37:28;;;;;;;17.02;12.65;;;;;;;;;;5071802;28;20021;-59
2022/09/06 03:39:54;;;;;;;16.23;12.30;;;;;;;;;;5072007;28;20023;-60
2022/09/06 03:42:20;;;;;;;17.40;12.23;;;;;;;;;;5071447;28;20033;-55
2022/09/06 03:44:46;;;;;;;18.63;12.38;;;;;;;;;;5072075;28;20040;-61
2022/09/06 03:47:12;;;;;;;16.00;12.35;;;;;;;;;;5071800;28;20028;-60
2022/09/06 03:49:38;;;;;;;17.23;12.20;;;;;;;;;;5072016;28;20028;-60
2022/09/06 03:52:05;;;;;;;19.27;12.68;;;;;;;;;;5071396;28;20025;-61
2022/09/06 03:54:31;;;;;;;16.85;12.18;;;;;;;;;;5070741;28;20070;-58
2022/09/06 03:56:57;;;;;;;18.33;12.23;;;;;;;;;;5070435;28;20020;-59
2022/09/06 03:59:23;;;;;;;21.23;12.95;;;;;;;;;;5071337;28;20509;-59
2022/09/06 04:01:49;;;;;;;18.65;12.88;;;;;;;;;;5070265;28;20067;-60
2022/09/06 04:04:15;;;;;;;18.30;13.32;;;;;;;;;;5071880;28;20546;-61
2022/09/06 04:06:41;;;;;;;22.20;13.20;;;;;;;;;;5070481;28;20020;-59
2022/09/06 04:09:07;;;;;;;18.65;13.00;;;;;;;;;;5069345;28;20028;-59
2022/09/06 04:11:33;;;;;;;16.90;13.10;;;;;;;;;;5060123;28;20094;-60
2022/09/06 04:13:59;;;;;;;18.80;13.20;;;;;;;;;;5065086;28;20027;-61
2022/09/06 04:16:25;;;;;;;20.13;13.13;;;;;;;;;;5071534;28;20027;-60
2022/09/06 04:18:51;;;;;;;19.42;13.13;;;;;;;;;;5052749;28;20013;-58
2022/09/06 04:21:17;;;;;;;18.85;13.15;;;;;;;;;;5051580;28;20025;-59
2022/09/06 04:23:43;;;;;;;18.63;13.20;;;;;;;;;;5051809;28;20021;-61
2022/09/06 04:26:09;;;;;;;17.42;12.88;;;;;;;;;;5059505;28;20482;-61
2022/09/06 04:28:36;;;;;;;19.70;13.35;;;;;;;;;;5069793;28;20082;-60
2022/09/06 04:31:02;;;;;;;18.40;13.43;;;;;;;;;;5071026;28;20021;-60
2022/09/06 04:33:29;;;;;;;18.33;13.27;;;;;;;;;;5069829;28;20025;-61
2022/09/06 04:35:56;;;;;;;20.45;13.88;;;;;;;;;;5071095;28;20025;-59
2022/09/06 04:38:23;;;;;;;19.25;14.05;;;;;;;;;;5069763;28;20175;-60
2022/09/06 04:40:49;;;;;;;17.77;12.98;;;;;;;;;;5071257;28;20020;-58
2022/09/06 04:43:15;;;;;;;18.63;13.38;;;;;;;;;;5063900;28;20115;-59
2022/09/06 04:45:42;;;;;;;20.33;13.55;;;;;;;;;;5053140;28;20111;-57
2022/09/06 04:48:08;;;;;;;21.83;14.48;;;;;;;;;;5054541;28;20033;-59
2022/09/06 04:50:34;;;;;;;18.23;14.40;;;;;;;;;;5055394;28;20226;-60
2022/09/06 04:53:00;;;;;;;19.13;13.98;;;;;;;;;;5054863;28;20485;-60
2022/09/06 04:55:28;;;;;;;18.73;13.57;;;;;;;;;;5055057;28;20032;-58
2022/09/06 04:57:55;;;;;;;19.25;14.40;;;;;;;;;;5055121;28;20362;-58
2022/09/06 05:00:21;;;;;;;18.70;13.85;;;;;;;;;;5055117;28;20029;-60
2022/09/06 05:02:47;;;;;;;18.85;14.35;;;;;;;;;;5055209;28;20025;-60
2022/09/06 05:05:13;;;;;;;21.83;14.60;;;;;;;;;;5054942;28;20488;-57
2022/09/06 05:07:39;;;;;;;19.95;14.23;;;;;;;;;;5054581;28;20041;-58
2022/09/06 05:10:05;;;;;;;18.65;13.95;;;;;;;;;;5063354;28;20035;-57
2022/09/06 05:12:31;;;;;;;20.15;15.20;;;;;;;;;;5074324;28;20021;-61
2022/09/06 05:14:57;;;;;;;20.35;14.25;;;;;;;;;;5074461;28;20039;-51
2022/09/06 05:17:23;;;;;;;22.60;15.45;;;;;;;;;;5074759;28;20048;-59
2022/09/06 05:19:49;;;;;;;20.23;14.40;;;;;;;;;;5073162;28;20025;-64
2022/09/06 05:22:15;;;;;;;18.58;14.18;;;;;;;;;;5075077;28;20035;-53
2022/09/06 05:24:41;;;;;;;20.55;14.98;;;;;;;;;;5074579;28;20020;-64
2022/09/06 05:27:07;;;;;;;19.58;14.93;;;;;;;;;;5075612;28;20055;-63
2022/09/06 05:29:33;;;;;;;22.88;14.73;;;;;;;;;;5074655;28;20150;-64
2022/09/06 05:31:59;;;;;;;23.15;16.05;;;;;;;;;;5074184;28;20507;-63
2022/09/06 05:34:25;;;;;;;21.77;14.52;;;;;;;;;;5074621;28;20146;-63
2022/09/06 05:36:52;;;;;;;21.77;16.35;;;;;;;;;;5074840;28;20028;-62
2022/09/06 05:39:20;;;;;;;22.17;14.45;;;;;;;;;;5073867;28;20546;-63
2022/09/06 05:41:46;;;;;;;19.30;14.30;;;;;;;;;;5074169;28;20107;-63
2022/09/06 05:44:13;;;;;;;24.95;20.27;;;;;;;;;;5074024;28;20277;-59
2022/09/06 05:46:44;;;;;;;22.92;16.15;;;;;;;;;;5073694;28;20035;-62
2022/09/06 05:49:10;;;;;;;23.05;14.57;;;;;;;;;;5074177;28;20020;-55
2022/09/06 05:51:36;;;;;;;20.65;13.60;;;;;;;;;;5074530;28;20032;-57
2022/09/06 05:54:02;;;;;;;23.83;15.60;;;;;;;;;;5073315;28;20028;-56
2022/09/06 05:56:28;;;;;;;25.38;15.20;;;;;;;;;;5072473;28;20017;-57
2022/09/06 05:58:54;;;;;;;18.77;14.38;;;;;;;;;;5071850;28;20040;-51
2022/09/06 06:01:21;;;;;;;24.58;14.35;;;;;;;;;;5073185;28;20024;-58
2022/09/06 06:04:06;;;;;;;26.73;21.15;;;;;;;;;;5073155;28;20020;-56
2022/09/06 06:06:33;;;;;;;28.60;21.85;;;;;;;;;;5073263;28;20062;-56
2022/09/06 06:09:00;;;;;;;21.60;15.45;;;;;;;;;;5073681;28;20031;-60
2022/09/06 06:11:26;;;;;;;20.23;13.57;;;;;;;;;;5073411;28;20116;-59
2022/09/06 06:13:53;;;;;;;21.05;14.68;;;;;;;;;;5074015;28;20085;-59
2022/09/06 06:16:20;;;;;;;22.67;14.43;;;;;;;;;;5073755;28;20485;-60
2022/09/06 06:18:46;;;;;;;23.08;13.90;;;;;;;;;;5073185;28;20032;-61
2022/09/06 06:21:14;;;;;;;34.35;22.02;;;;;;;;;;5073067;28;20107;-59
2022/09/06 06:23:40;;;;;;;21.75;14.73;;;;;;;;;;5073006;28;20046;-59
2022/09/06 06:26:07;;;;;;;21.00;13.82;;;;;;;;;;5072589;28;20504;-60
2022/09/06 06:28:34;;;;;;;21.50;14.18;;;;;;;;;;5072860;28;20040;-60
2022/09/06 06:31:00;;;;;;;18.98;14.43;;;;;;;;;;5072841;28;20402;-60
2022/09/06 06:33:26;;;;;;;28.13;20.70;;;;;;;;;;5072896;28;20055;-60
2022/09/06 06:35:56;;;;;;;24.52;16.80;;;;;;;;;;5073083;28;20044;-59
2022/09/06 06:38:22;;;;;;;20.50;13.70;;;;;;;;;;5072698;28;20085;-59
2022/09/06 06:40:48;;;;;;;22.02;13.30;;;;;;;;;;5073041;28;20092;-58
2022/09/06 06:43:14;;;;;;;23.15;15.57;;;;;;;;;;5072735;28;20099;-60
2022/09/06 06:45:40;;;;;;;25.73;14.73;;;;;;;;;;5072917;28;20366;-60
2022/09/06 06:48:06;;;;;;;25.98;15.57;;;;;;;;;;5072372;28;20407;-60
2022/09/06 06:50:32;;;;;;;21.05;14.27;;;;;;;;;;5073117;28;20508;-61
2022/09/06 06:52:58;;;;;;;21.20;14.05;;;;;;;;;;5072569;28;20040;-60
2022/09/06 06:55:24;;;;;;;19.73;14.13;;;;;;;;;;5073049;28;20025;-60
2022/09/06 06:57:51;;;;;;;23.02;15.77;;;;;;;;;;5072619;28;20024;-60
2022/09/06 07:00:17;;;;;;;24.55;15.48;;;;;;;;;;5072803;28;20023;-60
2022/09/06 07:02:43;;;;;;;23.75;15.15;;;;;;;;;;5072660;28;20032;-60
2022/09/06 07:05:09;;;;;;;22.65;14.38;;;;;;;;;;5072626;28;20033;-60
2022/09/06 07:07:35;;;;;;;20.83;14.95;;;;;;;;;;5072248;28;20085;-59
2022/09/06 07:10:02;;;;;;;23.75;14.13;;;;;;;;;;5071919;28;20565;-53
2022/09/06 07:12:28;;;;;;;24.33;15.90;;;;;;;;;;5071667;28;20374;-60
2022/09/06 07:14:54;;;;;;;24.73;15.73;;;;;;;;;;5071070;28;20024;-59
2022/09/06 07:17:20;;;;;;;22.38;15.18;;;;;;;;;;5070837;28;20029;-60
2022/09/06 07:19:46;;;;;;;22.25;15.32;;;;;;;;;;5072292;28;20020;-60
2022/09/06 07:22:12;;;;;;;22.92;15.10;;;;;;;;;;5072221;28;20021;-60
2022/09/06 07:24:38;;;;;;;24.80;15.70;;;;;;;;;;5072183;28;20102;-60
2022/09/06 07:27:04;;;;;;;23.17;15.25;;;;;;;;;;5072516;28;20435;-57
2022/09/06 07:29:30;;;;;;;24.27;14.80;;;;;;;;;;5071837;28;20020;-59
2022/09/06 07:31:56;;;;;;;23.50;16.42;;;;;;;;;;5071751;28;20025;-60
2022/09/06 07:34:24;;;;;;;21.80;15.57;;;;;;;;;;5072022;28;20017;-60
2022/09/06 07:36:56;;;;;;;25.38;16.90;;;;;;;;;;5071968;28;20503;-61
2022/09/06 07:39:23;;;;;;;24.65;15.38;;;;;;;;;;5071609;28;20029;-61
2022/09/06 07:41:49;;;;;;;23.40;16.48;;;;;;;;;;5072095;28;20103;-61
2022/09/06 07:44:15;;;;;;;29.58;18.15;;;;;;;;;;5071737;28;20107;-60
2022/09/06 07:46:41;;;;;;;23.55;17.50;;;;;;;;;;5071734;28;20024;-59
2022/09/06 07:49:07;;;;;;;29.45;17.70;;;;;;;;;;5071679;28;20366;-60
2022/09/06 07:51:33;;;;;;;24.80;17.63;;;;;;;;;;5071609;28;20527;-59
2022/09/06 07:53:59;;;;;;;25.40;17.90;;;;;;;;;;5071956;28;20033;-55
2022/09/06 07:56:25;;;;;;;23.65;17.58;;;;;;;;;;5071436;28;20427;-58
2022/09/06 07:58:51;;;;;;;25.55;17.27;;;;;;;;;;5071312;28;20061;-58
2022/09/06 08:01:30;;;;;;;28.95;18.50;;;;;;;;;;5071492;28;20020;-56
2022/09/06 08:03:56;;;;;;;;;;;;;;;;;;5072404;28;20041;-58
2022/09/06 08:06:22;;;;;;;21.52;17.70;;;;;;;;;;5070689;28;19904;-57
2022/09/06 08:08:49;;;;;;;25.48;18.45;;;;;;;;;;5071544;28;20024;-57
2022/09/06 08:11:15;;;;;;;23.08;16.38;;;;;;;;;;5071622;28;20098;-60
2022/09/06 08:13:41;;;;;;;20.85;16.58;;;;;;;;;;5071540;28;20021;-60
2022/09/06 08:16:08;;;;;;;21.52;16.50;;;;;;;;;;5071686;28;20397;-59
2022/09/06 08:18:34;;;;;;;24.95;17.42;;;;;;;;;;5070210;28;20036;-56
2022/09/06 08:21:07;;;;;;;23.00;16.02;;;;;;;;;;5072544;28;20040;-58
2022/09/06 08:23:34;;;;;;;25.95;17.55;;;;;;;;;;5075618;28;20020;-60
2022/09/06 08:26:00;;;;;;;23.45;16.60;;;;;;;;;;5075489;28;20025;-58
2022/09/06 08:28:26;;;;;;;23.05;17.17;;;;;;;;;;5075047;28;20024;-56
2022/09/06 08:30:52;;;;;;;27.10;19.10;;;;;;;;;;5076055;28;20020;-56
2022/09/06 08:33:24;;;;;;;23.00;16.65;;;;;;;;;;5074998;28;20111;-53
2022/09/06 08:35:59;;;;;;;23.80;16.65;;;;;;;;;;5075353;28;20044;-57
2022/09/06 08:38:26;;;;;;;24.73;16.83;;;;;;;;;;5074788;28;20547;-57
2022/09/06 08:40:53;;;;;;;21.88;16.40;;;;;;;;;;5073769;28;20476;-60
2022/09/06 08:43:21;;;;;;;20.65;16.00;;;;;;;;;;5066216;28;20031;-56
2022/09/06 08:45:49;;;;;;;23.20;15.03;;;;;;;;;;5063795;28;20103;-60
2022/09/06 08:48:15;;;;;;;18.90;15.30;;;;;;;;;;5064960;28;20451;-59
2022/09/06 08:50:45;;;;;;;18.95;15.00;;;;;;;;;;5063721;28;20044;-59
2022/09/06 08:53:17;;;;;;;18.65;15.73;;;;;;;;;;5055072;28;20029;-58
2022/09/06 08:55:43;;;;;;;20.58;16.08;;;;;;;;;;5054146;28;20031;-59
2022/09/06 08:58:27;;;;;;;22.60;16.83;;;;;;;;;;5054232;28;20029;-58
2022/09/06 09:00:57;;;;;;;22.02;16.25;;;;;;;;;;5054101;28;20147;-61
2022/09/06 09:03:31;;;;;;;21.23;16.45;;;;;;;;;;5061502;28;20481;-57
2022/09/06 09:05:58;;;;;;;19.40;15.70;;;;;;;;;;5063309;28;20043;-60
2022/09/06 09:08:37;;;;;;;19.17;14.80;;;;;;;;;;5067733;28;20024;-59
2022/09/06 09:11:14;;;;;;;19.85;14.93;;;;;;;;;;5073919;28;20277;-60
2022/09/06 09:13:45;;;;;;;21.10;15.25;;;;;;;;;;5074100;28;20028;-58
2022/09/06 09:16:12;;;;;;;18.38;15.40;;;;;;;;;;5067960;28;20024;-61
2022/09/06 09:18:39;;;;;;;22.95;16.02;;;;;;;;;;5062475;28;20021;-59
2022/09/06 09:21:05;;;;;;;20.07;15.63;;;;;;;;;;5065997;28;20429;-59
2022/09/06 09:23:32;;;;;;;21.50;16.30;;;;;;;;;;5066543;28;20106;-60
2022/09/06 09:26:10;;;;;;;22.08;16.83;;;;;;;;;;5056448;28;20370;-61
2022/09/06 09:28:36;;;;;;;23.10;16.05;;;;;;;;;;5068091;28;20067;-57
2022/09/06 09:31:02;;;;;;;19.20;15.35;;;;;;;;;;5060661;28;20035;-60
2022/09/06 09:33:32;;;;;;;20.40;15.90;;;;;;;;;;5054184;28;20048;-61
2022/09/06 09:35:59;;;;;;;18.65;16.27;;;;;;;;;;5055452;28;20025;-59
2022/09/06 09:38:27;;;;;;;20.20;15.85;;;;;;;;;;5053591;28;20499;-60
2022/09/06 09:40:54;;;;;;;19.83;16.42;;;;;;;;;;5053691;28;20025;-54
2022/09/06 09:43:24;;;;;;;21.35;16.48;;;;;;;;;;5060254;28;20029;-59
2022/09/06 09:46:09;;;;;;;19.50;16.40;;;;;;;;;;5062057;28;20504;-59
2022/09/06 09:48:35;;;;;;;19.98;16.45;;;;;;;;;;5053920;28;20298;-58
2022/09/06 09:51:18;;;;;;;18.30;14.75;;;;;;;;;;5053376;28;20045;-60
2022/09/06 09:53:53;;;;;;;21.40;15.60;;;;;;;;;;5060434;28;20453;-58
2022/09/06 09:56:26;;;;;;;21.25;14.55;;;;;;;;;;5061577;28;20028;-59
2022/09/06 09:58:53;;;;;;;20.38;14.77;;;;;;;;;;5062410;28;20021;-57
2022/09/06 10:01:22;;;;;;;22.03;14.53;;;;;;;;;;5064091;28;20024;-55
2022/09/06 10:03:50;;;;;;;19.33;14.88;;;;;;;;;;5061586;28;20024;-59
2022/09/06 10:06:24;;;;;;;20.30;15.32;;;;;;;;;;5063432;28;20104;-55
2022/09/06 10:08:50;;;;;;;20.83;15.40;;;;;;;;;;5061909;28;20439;-58
2022/09/06 10:11:36;;;;;;;20.80;14.35;;;;;;;;;;5067023;28;20021;-57
2022/09/06 10:14:22;;;;;;;17.20;14.27;;;;;;;;;;5062365;28;20067;-59
2022/09/06 10:16:50;;;;;;;18.75;14.10;;;;;;;;;;5064433;28;20024;-59
2022/09/06 10:19:21;;;;;;;23.17;14.00;;;;;;;;;;5052879;28;20024;-56
2022/09/06 10:21:49;;;;;;;19.58;14.00;;;;;;;;;;5053114;28;20070;-59
2022/09/06 10:24:27;;;;;;;19.63;13.15;;;;;;;;;;5053373;28;20043;-57
2022/09/06 10:26:59;;;;;;;18.35;13.82;;;;;;;;;;4712359;28;10000427;-57
2022/09/06 10:29:46;;;;;;;19.27;13.45;;;;;;;;;;5060919;28;20112;-58
2022/09/06 10:32:15;;;;;;;16.83;13.48;;;;;;;;;;5052953;28;20048;-60
2022/09/06 10:34:47;;;;;;;18.88;14.40;;;;;;;;;;5051616;28;20044;-61
2022/09/06 10:37:19;;;;;;;18.23;13.90;;;;;;;;;;5069902;28;20024;-59
2022/09/06 10:39:49;;;;;;;20.33;14.40;;;;;;;;;;5070803;28;20035;-60
2022/09/06 10:42:21;;;;;;;19.40;14.77;;;;;;;;;;5070911;28;20028;-59
2022/09/06 10:45:06;;;;;;;19.52;14.20;;;;;;;;;;5057230;28;20025;-58
2022/09/06 10:47:36;;;;;;;17.85;14.05;;;;;;;;;;5052491;28;20095;-58
2022/09/06 10:50:04;;;;;;;19.85;14.55;;;;;;;;;;5053535;28;20029;-58
2022/09/06 10:52:37;;;;;;;18.30;13.75;;;;;;;;;;5052421;28;20382;-57
2022/09/06 10:55:04;;;;;;;17.98;13.70;;;;;;;;;;5052610;28;20437;-57
2022/09/06 10:57:51;;;;;;;18.70;13.40;;;;;;;;;;5052414;28;20021;-58
2022/09/06 11:00:17;;;;;;;20.02;13.05;;;;;;;;;;5054254;28;20028;-59
2022/09/06 11:02:49;;;;;;;20.35;13.43;;;;;;;;;;5069264;28;20172;-58
2022/09/06 11:05:21;;;;;;;18.25;13.52;;;;;;;;;;5072494;28;20069;-57
2022/09/06 11:07:56;;;;;;;18.42;14.48;;;;;;;;;;5071622;28;20083;-61
2022/09/06 11:10:33;;;;;;;19.10;13.55;;;;;;;;;;4720451;28;10000527;-61
2022/09/06 11:13:18;;;;;;;16.60;13.52;;;;;;;;;;5070418;28;20029;-60
2022/09/06 11:15:44;;;;;;;17.45;13.70;;;;;;;;;;5070880;28;20408;-61
2022/09/06 11:18:22;;;;;;;16.35;12.93;;;;;;;;;;5071594;28;20032;-62
2022/09/06 11:21:02;;;;;;;19.48;13.43;;;;;;;;;;5072303;28;20481;-62
2022/09/06 11:23:47;;;;;;;17.25;13.55;;;;;;;;;;5072392;28;20114;-63
2022/09/06 11:26:17;;;;;;;20.42;14.00;;;;;;;;;;5072613;28;20445;-61
2022/09/06 11:28:43;;;;;;;16.85;13.63;;;;;;;;;;5072040;28;20033;-62
2022/09/06 11:31:10;;;;;;;18.55;13.90;;;;;;;;;;5071940;28;20103;-62
2022/09/06 11:33:38;;;;;;;17.88;13.60;;;;;;;;;;5072069;28;20069;-61
2022/09/06 11:36:29;;;;;;;18.30;13.85;;;;;;;;;;5072370;28;20108;-61
2022/09/06 11:38:57;;;;;;;18.25;13.77;;;;;;;;;;5072124;28;20029;-61
2022/09/06 11:41:28;;;;;;;20.13;13.60;;;;;;;;;;5072428;28;20481;-62
2022/09/06 11:43:54;;;;;;;18.00;14.05;;;;;;;;;;5072285;28;20032;-61
2022/09/06 11:46:32;;;;;;;18.33;13.60;;;;;;;;;;5071986;28;20100;-61
2022/09/06 11:49:04;;;;;;;18.40;13.50;;;;;;;;;;5071681;28;20023;-61
2022/09/06 11:51:41;;;;;;;19.45;14.00;;;;;;;;;;5072762;28;20036;-62
2022/09/06 11:54:30;;;;;;;18.33;13.57;;;;;;;;;;5074117;28;20085;-62
2022/09/06 11:57:08;;;;;;;19.02;13.40;;;;;;;;;;5085429;28;20056;-61
2022/09/06 11:59:37;;;;;;;15.75;13.00;;;;;;;;;;5084733;28;20051;-60
2022/09/06 12:02:06;;;;;;;17.63;13.57;;;38.50;49.90;;;;;;5076671;28;20060;-62
2022/09/06 12:05:00;;;;;;;18.90;13.48;;;37.50;49.60;;;;;;5076117;28;20039;-61
2022/09/06 12:07:27;;;;;;;16.63;13.65;;;38.00;49.30;;;;;;5075974;28;20032;-60
2022/09/06 12:09:53;;;;;;;17.27;13.50;;;37.30;47.50;;;;;;5075636;28;20060;-62
2022/09/06 12:12:51;;;;;;;16.52;13.52;;;36.40;48.50;;;;;;5075440;28;20095;-63
2022/09/06 12:15:42;;;;;;;17.20;13.70;;;36.40;49.40;;;;;;5041621;28;20032;-62
2022/09/06 12:18:08;;;;;;;16.55;13.10;;;36.50;47.50;;;;;;5077793;28;20103;-60
2022/09/06 12:20:51;;;;;;;17.20;13.00;;;37.00;47.00;;;;;;5095737;28;20099;-62
2022/09/06 12:23:41;;;;;;;21.60;13.82;;;38.40;47.10;;;;;;5071048;28;20032;-63
2022/09/06 12:26:09;;;;;;;17.90;13.93;;;38.80;47.40;;;;;;5063916;28;20080;-62
2022/09/06 12:28:45;;;;;;;17.60;14.18;;;39.30;44.70;;;;;;5061859;28;20036;-63
2022/09/06 12:31:33;;;;;;;19.20;14.27;;;38.70;45.00;;;;;;5064063;28;20565;-63
2022/09/06 12:34:07;;;;;;;16.20;14.10;;;38.80;42.70;;;;;;5064949;28;20397;-63
2022/09/06 12:36:33;;;;;;;16.95;14.18;;;37.80;43.90;;;;;;5063418;28;20393;-63
2022/09/06 12:39:00;;;;;;;16.75;13.55;;;39.00;44.20;;;;;;5055327;28;20021;-63
2022/09/06 12:41:29;;;;;;;17.08;13.55;;;40.10;43.10;;;;;;5055090;28;20634;-63
2022/09/06 12:43:57;;;;;;;16.50;12.95;;;;;;;;;;5058092;28;20036;-61
2022/09/06 12:46:24;;;;;;;19.25;13.80;;;;;;;;;;5065203;28;20020;-62
2022/09/06 12:49:00;;;;;;;17.70;13.43;;;;;;;;;;5063115;28;20112;-61
2022/09/06 12:51:26;;;;;;;18.20;14.07;;;39.80;42.40;;;;;;5065494;28;20029;-62
2022/09/06 12:53:54;;;;;;;17.30;15.43;;;41.10;40.00;;;;;;5054557;28;20025;-61
2022/09/06 12:56:21;;;;;;;18.63;13.70;;;41.20;41.70;;;;;;5064643;28;20078;-60
2022/09/06 12:58:47;;;;;;;18.63;13.77;;;39.50;39.00;;;;;;5062953;28;20013;-61
2022/09/06 13:01:31;;;;;;;17.13;13.63;;;40.80;40.30;;;;;;5064712;28;20559;-60
2022/09/06 13:04:06;;;;;;;16.63;13.70;;;;;;;;;;5068821;28;20017;-59
2022/09/06 13:06:40;;;;;;;17.80;13.90;;;40.30;36.40;;;;;;5060913;28;20032;-61
2022/09/06 13:09:09;;;;;;;16.52;14.60;;;40.90;35.60;;;;;;5063106;28;20477;-60
2022/09/06 13:11:43;;;;;;;18.10;13.90;;;40.80;37.40;;;;;;5064611;28;20028;-60
2022/09/06 13:14:11;;;;;;;18.75;14.25;;;39.30;38.10;;;;;;5063267;28;20025;-60
2022/09/06 13:16:44;;;;;;;16.20;14.27;;;39.30;38.30;;;;;;5062967;28;20062;-60
2022/09/06 13:19:31;;;;;;;17.33;14.07;;;39.30;39.90;;;;;;5063533;28;20140;-61
2022/09/06 13:21:58;;;;;;;16.50;14.45;;;37.70;39.80;;;;;;5073003;28;20103;-58
2022/09/06 13:24:42;;;;;;;16.52;13.40;;;37.30;40.20;;;;;;5065478;28;20504;-60
2022/09/06 13:27:36;;;;;;;16.85;13.75;;;37.20;41.70;;;;;;5062923;28;20064;-60
2022/09/06 13:30:05;;;;;;;17.73;13.70;;;35.20;42.30;;;;;;5064919;28;20024;-60
2022/09/06 13:32:32;;;;;;;16.52;13.60;;;33.20;43.70;;;;;;5073722;28;20052;-60
2022/09/06 13:34:59;;;;;;;18.70;14.00;;;32.50;45.60;;;;;;5074364;28;20024;-59
2022/09/06 13:37:27;;;;;;;19.23;13.88;;;33.00;44.70;;;;;;5073621;28;20050;-61
2022/09/06 13:39:53;;;;;;;17.65;13.75;;;33.00;45.50;;;;;;5074371;28;20078;-58
2022/09/06 13:42:28;;;;;;;17.00;13.90;;;32.90;45.00;;;;;;5072244;28;20434;-61
2022/09/06 13:44:54;;;;;;;18.13;14.00;;;33.90;44.00;;;;;;5063438;28;20555;-61
2022/09/06 13:47:19;;;;;;;17.15;13.82;;;34.90;43.70;;;;;;5063550;28;20109;-60
2022/09/06 13:49:46;;;;;;;17.80;13.73;;;36.30;42.70;;;;;;5061924;28;20081;-60
2022/09/06 13:52:12;;;;;;;16.55;13.80;;;34.80;41.20;;;;;;5070408;28;20037;-60
2022/09/06 13:54:38;;;;;;;16.73;13.82;;;34.50;43.80;;;;;;5069993;28;20040;-59
2022/09/06 13:57:04;;;;;;;18.25;13.43;;;35.40;42.30;;;;;;5062138;28;20017;-60
2022/09/06 13:59:30;;;;;;;16.52;13.77;;;35.90;41.20;;;;;;5067531;28;20036;-62
2022/09/06 14:02:02;;;;;;;16.88;13.80;;;36.50;42.50;;;;;;5067311;28;20024;-62
2022/09/06 14:04:28;;;;;;;17.30;13.57;;;37.70;41.00;;;;;;5074252;28;20024;-61
2022/09/06 14:06:54;;;;;;;16.90;14.02;;;38.10;39.50;;;;;;5069605;28;20029;-61
2022/09/06 14:09:20;;;;;;;16.77;13.40;;;38.90;38.30;;;;;;5061782;28;20693;-61
2022/09/06 14:11:46;;;;;;;16.65;13.45;;;38.80;39.60;;;;;;5066324;28;20100;-61